createdAt,value
2018-11-25T00:00:53.488Z,40.40
2018-11-25T00:03:21.176Z,41.60
2018-11-25T00:05:50.929Z,39.37
2018-11-25T00:08:18.673Z,41.93
2018-11-25T00:10:46.354Z,42.60
2018-11-25T00:13:14.073Z,41.77
2018-11-25T00:15:41.769Z,41.93
2018-11-25T00:18:09.497Z,41.10
2018-11-25T00:20:37.190Z,42.03
2018-11-25T00:23:04.933Z,43.23
2018-11-25T00:25:32.643Z,41.97
2018-11-25T00:28:00.393Z,41.23
2018-11-25T00:30:28.213Z,41.07
2018-11-25T00:32:55.898Z,41.67
2018-11-25T00:35:23.570Z,41.80
2018-11-25T00:37:51.314Z,41.70
2018-11-25T00:40:18.998Z,42.60
2018-11-25T00:42:46.750Z,41.80
2018-11-25T00:45:15.065Z,42.73
2018-11-25T00:47:42.806Z,40.83
2018-11-25T00:50:11.189Z,42.07
2018-11-25T00:52:38.966Z,41.23
2018-11-25T00:55:08.466Z,40.80
2018-11-25T00:57:36.205Z,40.50
2018-11-25T01:00:04.754Z,43.23
2018-11-25T01:02:33.453Z,42.60
2018-11-25T01:05:01.137Z,40.90
2018-11-25T01:07:28.818Z,43.27
2018-11-25T01:09:56.557Z,43.67
2018-11-25T01:12:24.229Z,44.63
2018-11-25T01:14:51.973Z,41.90
2018-11-25T01:17:19.649Z,42.47
2018-11-25T01:19:47.325Z,41.97
2018-11-25T01:22:15.106Z,44.17
2018-11-25T01:24:42.893Z,41.07
2018-11-25T01:27:10.615Z,42.70
2018-11-25T01:29:38.289Z,43.40
2018-11-25T01:32:06.022Z,42.10
2018-11-25T01:34:33.707Z,42.13
2018-11-25T01:37:01.423Z,42.20
2018-11-25T01:39:29.106Z,42.27
2018-11-25T01:41:56.819Z,43.37
2018-11-25T01:44:24.532Z,44.27
2018-11-25T01:46:52.221Z,42.80
2018-11-25T01:49:19.969Z,42.83
2018-11-25T01:51:47.696Z,40.30
2018-11-25T01:54:15.405Z,40.93
2018-11-25T01:56:43.073Z,42.30
2018-11-25T01:59:10.813Z,40.63
2018-11-25T02:01:38.498Z,40.30
2018-11-25T02:04:06.241Z,41.80
2018-11-25T02:06:34.938Z,40.10
2018-11-25T02:09:02.673Z,38.17
2018-11-25T02:11:30.361Z,39.00
2018-11-25T02:13:58.032Z,39.03
2018-11-25T02:16:25.781Z,39.40
2018-11-25T02:18:53.461Z,38.93
2018-11-25T02:21:21.214Z,40.40
2018-11-25T02:23:48.899Z,39.50
2018-11-25T02:26:16.656Z,39.07
2018-11-25T02:28:45.332Z,38.53
2018-11-25T02:31:13.002Z,38.40
2018-11-25T02:33:40.758Z,39.50
2018-11-25T02:36:08.445Z,38.50
2018-11-25T02:38:36.173Z,39.07
2018-11-25T02:41:03.925Z,39.87
2018-11-25T02:43:31.637Z,39.83
2018-11-25T02:45:59.366Z,39.23
2018-11-25T02:48:27.081Z,37.47
2018-11-25T02:50:54.810Z,40.80
2018-11-25T02:53:22.554Z,39.67
2018-11-25T02:55:50.249Z,39.20
2018-11-25T02:58:17.965Z,37.10
2018-11-25T03:00:45.693Z,38.70
2018-11-25T03:03:13.397Z,38.50
2018-11-25T03:05:41.162Z,38.33
2018-11-25T03:08:08.867Z,39.53
2018-11-25T03:10:36.593Z,35.80
2018-11-25T03:13:04.265Z,37.07
2018-11-25T03:15:32.006Z,37.67
2018-11-25T03:17:59.694Z,37.97
2018-11-25T03:20:27.351Z,37.17
2018-11-25T03:22:55.041Z,38.30
2018-11-25T03:25:22.777Z,36.30
2018-11-25T03:27:50.459Z,37.80
2018-11-25T03:30:18.829Z,37.63
2018-11-25T03:32:47.017Z,37.77
2018-11-25T03:35:14.759Z,37.97
2018-11-25T03:37:42.469Z,38.50
2018-11-25T03:40:10.733Z,37.40
2018-11-25T03:42:38.466Z,37.13
2018-11-25T03:45:07.381Z,37.17
2018-11-25T03:47:36.030Z,36.93
2018-11-25T03:50:04.050Z,37.50
2018-11-25T03:52:31.793Z,38.40
2018-11-25T03:54:59.534Z,38.30
2018-11-25T03:57:27.220Z,36.20
2018-11-25T03:59:54.953Z,36.17
2018-11-25T04:02:22.621Z,37.60
2018-11-25T04:04:50.293Z,36.60
2018-11-25T04:07:18.071Z,38.57
2018-11-25T04:09:45.813Z,39.17
2018-11-25T04:12:13.486Z,35.77
2018-11-25T04:14:41.242Z,36.70
2018-11-25T04:17:08.898Z,36.90
2018-11-25T04:19:36.585Z,36.33
2018-11-25T04:22:04.322Z,36.13
2018-11-25T04:24:32.025Z,35.53
2018-11-25T04:26:59.782Z,36.20
2018-11-25T04:29:27.517Z,38.23
2018-11-25T04:31:55.223Z,36.90
2018-11-25T04:34:22.993Z,36.93
2018-11-25T04:36:51.722Z,35.90
2018-11-25T04:39:19.401Z,34.67
2018-11-25T04:41:48.187Z,37.73
2018-11-25T04:44:15.851Z,38.70
2018-11-25T04:46:43.509Z,37.73
2018-11-25T04:49:11.186Z,36.90
2018-11-25T04:51:39.843Z,36.77
2018-11-25T04:54:07.542Z,36.97
2018-11-25T04:56:35.281Z,36.20
2018-11-25T04:59:02.934Z,35.80
2018-11-25T05:01:30.615Z,36.10
2018-11-25T05:03:58.297Z,33.67
2018-11-25T05:06:26.037Z,33.87
2018-11-25T05:08:53.725Z,36.00
2018-11-25T05:11:21.454Z,33.40
2018-11-25T05:13:49.121Z,33.10
2018-11-25T05:16:16.893Z,33.27
2018-11-25T05:18:44.570Z,34.30
2018-11-25T05:21:13.246Z,34.17
2018-11-25T05:23:40.989Z,32.80
2018-11-25T05:26:08.659Z,33.40
2018-11-25T05:28:36.327Z,34.77
2018-11-25T05:31:05.182Z,35.03
2018-11-25T05:33:32.877Z,34.50
2018-11-25T05:36:00.545Z,35.20
2018-11-25T05:38:28.298Z,35.83
2018-11-25T05:40:55.977Z,35.10
2018-11-25T05:43:23.740Z,34.40
2018-11-25T05:45:51.473Z,35.10
2018-11-25T05:48:19.151Z,34.17
2018-11-25T05:50:46.861Z,33.80
2018-11-25T05:53:14.587Z,35.13
2018-11-25T05:55:42.259Z,33.57
2018-11-25T05:58:10.041Z,33.93
2018-11-25T06:00:37.760Z,33.30
2018-11-25T06:03:05.456Z,33.47
2018-11-25T06:05:33.184Z,33.93
2018-11-25T06:08:00.870Z,33.07
2018-11-25T06:10:28.613Z,35.07
2018-11-25T06:12:56.290Z,33.23
2018-11-25T06:15:23.954Z,31.23
2018-11-25T06:17:51.705Z,32.13
2018-11-25T06:20:19.373Z,33.70
2018-11-25T06:22:47.064Z,31.23
2018-11-25T06:25:15.177Z,32.20
2018-11-25T06:27:43.021Z,32.57
2018-11-25T06:30:11.337Z,33.30
2018-11-25T06:32:39.125Z,33.13
2018-11-25T06:35:07.442Z,33.47
2018-11-25T06:37:35.165Z,32.53
2018-11-25T06:40:03.065Z,31.80
2018-11-25T06:42:30.773Z,33.10
2018-11-25T06:44:58.485Z,32.07
2018-11-25T06:47:26.226Z,32.60
2018-11-25T06:49:53.898Z,32.60
2018-11-25T06:52:21.614Z,34.00
2018-11-25T06:54:49.291Z,33.37
2018-11-25T06:57:16.977Z,32.90
2018-11-25T06:59:44.718Z,32.80
2018-11-25T07:02:12.394Z,32.87
2018-11-25T07:04:40.117Z,33.73
2018-11-25T07:07:07.797Z,32.70
2018-11-25T07:09:35.494Z,35.80
2018-11-25T07:12:03.238Z,36.00
2018-11-25T07:14:30.913Z,34.97
2018-11-25T07:16:58.613Z,36.20
2018-11-25T07:19:26.321Z,34.73
2018-11-25T07:21:53.993Z,36.30
2018-11-25T07:24:21.674Z,36.07
2018-11-25T07:26:49.437Z,36.77
2018-11-25T07:29:17.185Z,37.00
2018-11-25T07:31:44.859Z,38.03
2018-11-25T07:34:12.644Z,36.97
2018-11-25T07:36:40.392Z,37.90
2018-11-25T07:39:08.029Z,36.70
2018-11-25T07:41:35.729Z,37.00
2018-11-25T07:44:03.446Z,35.83
2018-11-25T07:46:31.137Z,34.80
2018-11-25T07:48:58.814Z,35.60
2018-11-25T07:51:26.557Z,35.90
2018-11-25T07:53:54.218Z,35.30
2018-11-25T07:56:21.921Z,37.60
2018-11-25T07:58:49.645Z,34.63
2018-11-25T08:01:17.349Z,33.70
2018-11-25T08:03:45.072Z,35.73
2018-11-25T08:06:12.810Z,37.80
2018-11-25T08:08:40.519Z,35.73
2018-11-25T08:11:08.255Z,34.57
2018-11-25T08:13:35.921Z,34.77
2018-11-25T08:16:03.623Z,35.67
2018-11-25T08:18:31.350Z,34.57
2018-11-25T08:20:59.137Z,35.10
2018-11-25T08:23:27.820Z,34.97
2018-11-25T08:25:55.537Z,36.00
2018-11-25T08:28:23.227Z,34.07
2018-11-25T08:30:50.900Z,33.83
2018-11-25T08:33:18.633Z,33.83
2018-11-25T08:35:46.314Z,34.00
2018-11-25T08:38:13.979Z,33.53
2018-11-25T08:40:41.666Z,33.60
2018-11-25T08:43:09.405Z,32.80
2018-11-25T08:45:37.094Z,34.03
2018-11-25T08:48:04.877Z,35.13
2018-11-25T08:50:32.581Z,34.60
2018-11-25T08:53:00.261Z,35.13
2018-11-25T08:55:27.921Z,34.60
2018-11-25T08:57:55.584Z,34.23
2018-11-25T09:00:23.786Z,34.20
2018-11-25T09:02:51.958Z,35.83
2018-11-25T09:05:19.681Z,37.33
2018-11-25T09:07:47.345Z,37.70
2018-11-25T09:10:15.467Z,36.70
2018-11-25T09:12:43.533Z,35.63
2018-11-25T09:15:11.885Z,36.57
2018-11-25T09:17:39.713Z,36.20
2018-11-25T09:20:10.113Z,35.73
2018-11-25T09:22:37.858Z,35.47
2018-11-25T09:25:06.910Z,36.17
2018-11-25T09:27:34.606Z,37.70
2018-11-25T09:30:02.365Z,36.60
2018-11-25T09:32:30.093Z,35.53
2018-11-25T09:34:57.758Z,39.10
2018-11-25T09:37:26.540Z,38.07
2018-11-25T09:39:54.225Z,37.40
2018-11-25T09:42:21.886Z,37.50
2018-11-25T09:44:49.567Z,36.80
2018-11-25T09:47:17.337Z,38.00
2018-11-25T09:49:45.093Z,36.07
2018-11-25T09:52:12.865Z,37.53
2018-11-25T09:54:40.595Z,36.33
2018-11-25T09:57:08.265Z,35.87
2018-11-25T09:59:36.008Z,36.13
2018-11-25T10:02:03.673Z,35.77
2018-11-25T10:04:31.353Z,36.10
2018-11-25T10:06:59.039Z,34.50
2018-11-25T10:09:26.722Z,33.83
2018-11-25T10:11:54.595Z,33.97
2018-11-25T10:19:16.207Z,32.27
2018-11-25T10:21:43.877Z,32.20
2018-11-25T10:24:11.642Z,33.40
2018-11-25T10:26:39.410Z,34.60
2018-11-25T10:29:07.147Z,32.87
2018-11-25T10:31:34.846Z,32.20
2018-11-25T10:34:02.583Z,32.23
2018-11-25T10:36:31.264Z,32.30
2018-11-25T10:38:58.955Z,33.23
2018-11-25T10:41:26.710Z,34.73
2018-11-25T10:43:54.558Z,33.80
2018-11-25T10:46:22.240Z,33.80
2018-11-25T10:48:50.034Z,33.40
2018-11-25T10:51:17.804Z,33.43
2018-11-25T10:53:45.521Z,34.63
2018-11-25T10:56:13.199Z,35.17
2018-11-25T10:58:40.971Z,36.00
2018-11-25T11:01:14.333Z,38.63
2018-11-25T11:03:47.631Z,35.00
2018-11-25T11:06:21.017Z,34.67
2018-11-25T11:08:48.743Z,34.80
2018-11-25T11:11:16.442Z,34.73
2018-11-25T11:13:44.126Z,35.60
2018-11-25T11:16:11.785Z,34.33
2018-11-25T11:18:39.448Z,36.13
2018-11-25T11:21:07.113Z,34.50
2018-11-25T11:23:34.870Z,34.13
2018-11-25T11:26:06.986Z,35.67
2018-11-25T11:28:30.276Z,34.23
2018-11-25T11:30:57.961Z,34.67
2018-11-25T11:33:25.645Z,34.80
2018-11-25T11:35:53.382Z,35.23
2018-11-25T11:38:21.110Z,35.23
2018-11-25T11:40:48.796Z,34.23
2018-11-25T11:43:16.465Z,34.67
2018-11-25T11:45:44.130Z,32.60
2018-11-25T11:48:11.845Z,35.30
2018-11-25T11:50:39.554Z,33.00
2018-11-25T11:53:07.237Z,35.03
2018-11-25T11:55:35.008Z,33.60
2018-11-25T11:58:02.763Z,32.80
2018-11-25T12:00:30.854Z,34.70
2018-11-25T12:02:58.821Z,34.73
2018-11-25T12:05:26.618Z,34.50
2018-11-25T12:07:54.344Z,33.60
2018-11-25T12:10:21.997Z,34.23
2018-11-25T12:12:49.749Z,33.27
2018-11-25T12:15:19.938Z,34.63
2018-11-25T12:17:47.626Z,33.60
2018-11-25T12:20:15.315Z,33.00
2018-11-25T12:22:43.106Z,33.80
2018-11-25T12:25:12.386Z,32.13
2018-11-25T12:27:40.121Z,32.43
2018-11-25T12:30:09.450Z,32.47
2018-11-25T12:32:37.269Z,33.53
2018-11-25T12:35:05.010Z,31.40
2018-11-25T12:37:36.172Z,31.30
2018-11-25T12:40:00.457Z,30.60
2018-11-25T12:42:28.218Z,32.77
2018-11-25T12:44:56.014Z,31.20
2018-11-25T12:47:24.354Z,33.33
2018-11-25T12:49:51.880Z,32.47
2018-11-25T12:52:19.641Z,33.20
2018-11-25T12:54:47.627Z,33.13
2018-11-25T12:57:15.463Z,33.37
2018-11-25T12:59:43.361Z,35.00
2018-11-25T13:02:11.410Z,30.57
2018-11-25T13:04:39.182Z,33.03
2018-11-25T13:07:06.833Z,31.77
2018-11-25T13:09:34.554Z,33.70
2018-11-25T13:12:02.234Z,33.33
2018-11-25T13:14:29.905Z,33.60
2018-11-25T13:16:57.570Z,33.93
2018-11-25T13:19:25.299Z,32.80
2018-11-25T13:21:53.009Z,34.80
2018-11-25T13:24:20.742Z,33.97
2018-11-25T13:26:48.411Z,33.20
2018-11-25T13:29:16.073Z,34.23
2018-11-25T13:31:43.742Z,33.67
2018-11-25T13:34:11.503Z,34.27
2018-11-25T13:36:39.184Z,34.83
2018-11-25T13:39:08.065Z,34.63
2018-11-25T13:41:35.851Z,34.27
2018-11-25T13:44:03.639Z,34.40
2018-11-25T13:46:31.361Z,34.53
2018-11-25T13:48:59.097Z,32.90
2018-11-25T13:51:26.773Z,33.63
2018-11-25T13:53:58.521Z,33.83
2018-11-25T13:56:25.129Z,34.63
2018-11-25T13:58:52.837Z,33.73
2018-11-25T14:01:20.577Z,34.70
2018-11-25T14:03:48.381Z,33.40
2018-11-25T14:06:16.117Z,34.07
2018-11-25T14:08:46.394Z,33.83
2018-11-25T14:11:14.349Z,35.37
2018-11-25T14:13:43.026Z,34.60
2018-11-25T14:16:12.732Z,34.47
2018-11-25T14:18:40.488Z,35.03
2018-11-25T14:21:08.221Z,33.93
2018-11-25T14:23:35.941Z,34.07
2018-11-25T14:26:06.909Z,35.43
2018-11-25T14:28:34.597Z,32.43
2018-11-25T14:31:02.345Z,34.93
2018-11-25T14:33:31.153Z,33.90
2018-11-25T14:35:57.796Z,37.40
2018-11-25T14:38:25.469Z,37.23
2018-11-25T14:40:53.253Z,36.50
2018-11-25T14:43:20.981Z,36.63
2018-11-25T14:45:49.685Z,38.07
2018-11-25T14:48:17.431Z,36.97
2018-11-25T14:50:45.135Z,39.30
2018-11-25T14:53:12.874Z,38.87
2018-11-25T14:55:40.618Z,37.23
2018-11-25T14:58:08.314Z,38.57
2018-11-25T15:00:36.046Z,41.60
2018-11-25T15:03:04.370Z,40.57
2018-11-25T15:05:37.233Z,40.13
2018-11-25T15:08:05.468Z,39.77
2018-11-25T15:10:33.149Z,39.60
2018-11-25T15:13:00.852Z,41.80
2018-11-25T15:15:28.589Z,41.10
2018-11-25T15:17:56.334Z,39.97
2018-11-25T15:20:24.045Z,41.10
2018-11-25T15:22:52.818Z,42.27
2018-11-25T15:25:21.422Z,41.70
2018-11-25T15:27:49.152Z,41.20
2018-11-25T15:30:16.814Z,40.10
2018-11-25T15:32:44.561Z,40.70
2018-11-25T15:35:12.549Z,40.53
2018-11-25T15:37:41.957Z,41.30
2018-11-25T15:40:10.743Z,41.00
2018-11-25T15:42:38.757Z,43.73
2018-11-25T15:45:07.333Z,40.70
2018-11-25T15:47:35.077Z,39.93
2018-11-25T15:50:02.815Z,42.33
2018-11-25T15:52:30.562Z,42.33
2018-11-25T15:54:58.248Z,42.83
2018-11-25T15:57:25.973Z,41.20
2018-11-25T15:59:53.723Z,42.13
2018-11-25T16:02:21.448Z,42.03
2018-11-25T16:04:49.137Z,41.03
2018-11-25T16:07:16.851Z,43.60
2018-11-25T16:09:44.520Z,42.00
2018-11-25T16:12:12.307Z,41.70
2018-11-25T16:14:40.038Z,41.17
2018-11-25T16:17:08.621Z,40.30
2018-11-25T16:19:36.309Z,42.80
2018-11-25T16:22:05.066Z,41.17
2018-11-25T16:24:32.746Z,41.33
2018-11-25T16:27:01.415Z,40.27
2018-11-25T16:29:29.095Z,42.50
2018-11-25T16:31:56.839Z,42.00
2018-11-25T16:34:24.538Z,41.40
2018-11-25T16:36:52.298Z,42.10
2018-11-25T16:39:20.030Z,42.13
2018-11-25T16:41:47.733Z,42.97
2018-11-25T16:44:15.469Z,41.30
2018-11-25T16:46:43.126Z,43.43
2018-11-25T16:49:10.818Z,42.33
2018-11-25T16:51:38.553Z,41.10
2018-11-25T16:54:06.245Z,42.07
2018-11-25T16:56:34.008Z,41.77
2018-11-25T16:59:01.741Z,41.80
2018-11-25T17:01:29.518Z,39.90
2018-11-25T17:03:57.197Z,42.10
2018-11-25T17:06:24.930Z,40.83
2018-11-25T17:08:52.614Z,40.30
2018-11-25T17:11:20.365Z,42.63
2018-11-25T17:13:48.138Z,43.93
2018-11-25T17:16:15.886Z,40.13
2018-11-25T17:18:43.583Z,41.57
2018-11-25T17:21:11.394Z,41.13
2018-11-25T17:23:39.095Z,42.07
2018-11-25T17:26:06.879Z,41.87
2018-11-25T17:28:34.620Z,41.60
2018-11-25T17:31:02.393Z,43.70
2018-11-25T17:33:30.135Z,42.60
2018-11-25T17:35:57.849Z,44.90
2018-11-25T17:38:25.602Z,40.50
2018-11-25T17:40:53.346Z,43.90
2018-11-25T17:43:21.764Z,42.70
2018-11-25T17:45:49.489Z,41.80
2018-11-25T17:48:17.221Z,41.83
2018-11-25T17:50:44.902Z,42.47
2018-11-25T17:53:12.593Z,43.67
2018-11-25T17:55:40.324Z,43.87
2018-11-25T17:58:08.009Z,42.10
2018-11-25T18:00:38.636Z,43.30
2018-11-25T18:03:07.443Z,40.67
2018-11-25T18:05:38.932Z,41.20
2018-11-25T18:08:02.854Z,40.40
2018-11-25T18:10:30.591Z,43.00
2018-11-25T18:12:58.281Z,41.60
2018-11-25T18:15:26.021Z,42.10
2018-11-25T18:18:01.519Z,43.77
2018-11-25T18:20:30.614Z,43.43
2018-11-25T18:22:59.429Z,43.47
2018-11-25T18:25:27.494Z,41.73
2018-11-25T18:28:00.406Z,43.67
2018-11-25T18:30:22.945Z,42.70
2018-11-25T18:32:50.701Z,41.93
2018-11-25T18:35:18.373Z,43.70
2018-11-25T18:37:47.068Z,40.93
2018-11-25T18:40:14.866Z,41.83
2018-11-25T18:42:43.042Z,42.90
2018-11-25T18:45:11.513Z,45.33
2018-11-25T18:47:39.333Z,44.97
2018-11-25T18:50:08.269Z,43.87
2018-11-25T18:52:36.021Z,44.43
2018-11-25T18:55:03.281Z,46.33
2018-11-25T18:57:31.018Z,42.80
2018-11-25T18:59:58.734Z,43.30
2018-11-25T19:02:32.937Z,44.10
2018-11-25T19:05:00.669Z,44.57
2018-11-25T19:07:28.447Z,44.80
2018-11-25T19:09:56.190Z,44.40
2018-11-25T19:12:23.880Z,42.20
2018-11-25T19:14:51.650Z,43.13
2018-11-25T19:17:19.448Z,42.97
2018-11-25T19:19:47.291Z,44.47
2018-11-25T19:22:15.247Z,42.20
2018-11-25T19:24:43.305Z,41.50
2018-11-25T19:27:11.298Z,42.60
2018-11-25T19:29:39.275Z,41.60
2018-11-25T19:32:07.295Z,43.07
2018-11-25T19:34:35.320Z,42.00
2018-11-25T19:37:03.326Z,43.80
2018-11-25T19:39:31.299Z,39.77
2018-11-25T19:41:59.259Z,42.43
2018-11-25T19:44:27.225Z,42.83
2018-11-25T19:46:55.232Z,39.33
2018-11-25T19:49:23.240Z,41.93
2018-11-25T19:51:51.312Z,41.37
2018-11-25T19:54:19.304Z,42.53
2018-11-25T19:56:47.376Z,42.77
2018-11-25T19:59:15.355Z,43.27
2018-11-25T20:01:43.307Z,41.67
2018-11-25T20:04:11.331Z,42.27
2018-11-25T20:06:39.361Z,42.83
2018-11-25T20:09:08.798Z,42.40
2018-11-25T20:11:36.845Z,41.57
2018-11-25T20:14:05.268Z,40.63
2018-11-25T20:16:39.919Z,41.73
2018-11-25T20:19:07.915Z,38.97
2018-11-25T20:21:40.975Z,39.10
2018-11-25T20:24:09.710Z,38.47
2018-11-25T20:26:37.498Z,38.80
2018-11-25T20:29:05.398Z,39.53
2018-11-25T20:31:33.139Z,38.50
2018-11-25T20:34:00.858Z,36.03
2018-11-25T20:36:28.577Z,34.63
2018-11-25T20:39:29.421Z,33.80
2018-11-25T20:41:57.157Z,33.70
2018-11-25T20:44:24.893Z,31.20
2018-11-25T20:46:58.142Z,32.30
2018-11-25T20:49:25.935Z,31.53
2018-11-25T20:51:59.246Z,30.03
2018-11-25T20:54:26.917Z,32.40
2018-11-25T20:56:54.673Z,32.53
2018-11-25T20:59:22.329Z,32.90
2018-11-25T21:01:50.055Z,31.83
2018-11-25T21:04:17.784Z,33.27
2018-11-25T21:06:45.545Z,30.53
2018-11-25T21:09:13.282Z,30.30
2018-11-25T21:11:40.961Z,30.13
2018-11-25T21:14:08.708Z,30.03
2018-11-25T21:16:36.392Z,30.00
2018-11-25T21:19:04.241Z,30.73
2018-11-25T21:21:31.937Z,30.47
2018-11-25T21:23:59.715Z,32.47
2018-11-25T21:26:27.448Z,29.13
2018-11-25T21:28:55.185Z,30.00
2018-11-25T21:31:22.846Z,29.33
2018-11-25T21:33:50.514Z,30.80
2018-11-25T21:36:18.210Z,33.43
2018-11-25T21:38:46.026Z,31.17
2018-11-25T21:41:13.729Z,30.10
2018-11-25T21:43:41.394Z,32.63
2018-11-25T21:46:09.149Z,30.63
2018-11-25T21:48:36.829Z,32.27
2018-11-25T21:51:04.566Z,33.10
2018-11-25T21:53:32.293Z,31.33
2018-11-25T21:55:59.987Z,30.17
2018-11-25T21:58:28.848Z,31.53
2018-11-25T22:00:55.414Z,32.07
2018-11-25T22:03:23.069Z,30.77
2018-11-25T22:05:50.789Z,30.27
2018-11-25T22:08:18.506Z,29.47
2018-11-25T22:10:46.181Z,29.93
2018-11-25T22:13:13.949Z,30.20
2018-11-25T22:15:41.725Z,28.47
2018-11-25T22:18:09.449Z,27.53
2018-11-25T22:20:37.127Z,28.47
2018-11-25T22:23:05.134Z,26.80
2018-11-25T22:25:32.870Z,26.90
2018-11-25T22:28:00.614Z,25.67
2018-11-25T22:30:28.297Z,24.57
2018-11-25T22:32:56.029Z,26.93
2018-11-25T22:35:23.970Z,24.87
2018-11-25T22:37:51.678Z,24.20
2018-11-25T22:40:19.909Z,24.53
2018-11-25T22:42:48.282Z,25.60
2018-11-25T22:45:16.684Z,25.70
2018-11-25T22:47:44.369Z,25.57
2018-11-25T22:50:13.394Z,25.60
2018-11-25T22:52:41.124Z,25.10
2018-11-25T22:55:09.546Z,25.70
2018-11-25T22:57:37.321Z,24.60
2018-11-25T23:00:09.062Z,25.67
2018-11-25T23:02:37.710Z,26.27
2018-11-25T23:05:10.971Z,25.17
2018-11-25T23:07:38.666Z,26.70
2018-11-25T23:10:07.358Z,25.17
2018-11-25T23:12:35.013Z,26.27
2018-11-25T23:15:02.692Z,27.10
2018-11-25T23:17:30.341Z,28.50
2018-11-25T23:19:58.010Z,28.30
2018-11-25T23:22:25.698Z,28.90
2018-11-25T23:24:53.437Z,30.03
2018-11-25T23:27:21.134Z,27.13
2018-11-25T23:29:48.874Z,28.37
2018-11-25T23:32:16.605Z,28.93
2018-11-25T23:34:44.285Z,28.90
2018-11-25T23:37:12.946Z,29.10
2018-11-25T23:39:40.631Z,28.97
2018-11-25T23:42:08.298Z,28.40
2018-11-25T23:44:35.997Z,27.83
2018-11-25T23:47:03.718Z,27.50
2018-11-25T23:49:31.396Z,27.03
2018-11-25T23:51:59.073Z,25.63
2018-11-25T23:54:26.807Z,26.50
2018-11-25T23:56:54.509Z,26.37
2018-11-25T23:59:22.366Z,26.70
